Orderville, UT

7:05 AM MST on January 21, 2017 (GMT -0700)
MCENU1 | | Change Station
Active Advisory: Winter Weather Advisory

Elev 5841 ft 37.14 °N, 112.45 °W | Updated 49 minutes ago

Snow
Snow
29.0 °F
Feels Like 29 °F
N
0.0
Wind Variable Wind from North
Gusts 7.0 mph

Today
High -- | Low -- °F
--% Chance of Precip.
Yesterday
High -- | Low -- °F
Precip. -- in
Pressure 29.45 in
Visibility 7.0 miles
Clouds Mostly Cloudy 900 ft
Overcast 1900 ft
Windchill 29 °F
Dew Point 27 °F
Humidity 94%
Rainfall 0.84 in
Snow Depth Not available.
7:40 AM 5:43 PM
Waning Crescent, 35% visible
METAR KAZC 211355Z AUTO 23012G16KT 7SM -SN BKN009 OVC019 01/00 A2945 RMK AO2 P0001
Pressure 29.45 in
Visibility 7.0 miles
Clouds Mostly Cloudy 900 ft
Overcast 1900 ft
Windchill 29 °F
Dew Point 27 °F
Humidity 94%
Rainfall 0.84 in
Snow Depth Not available.
7:40 AM 5:43 PM
Waning Crescent, 35% visible
METAR KAZC 211355Z AUTO 23012G16KT 7SM -SN BKN009 OVC019 01/00 A2945 RMK AO2 P0001

Get Your Daily Forecast Email!

Thanks for signing up!

Be on the lookout for a verification email in your inbox.

You'll start receiving the daily forecast at 8 AM.

×

10-Day Weather Forecast

Almanac

Astronomy

Jan. 21, 2017 Rise Set
Actual Time
Civil Twilight
Nautical Twilight
Astronomical Twilight
Moon
Length of Visible Light
Length of Day
Tomorrow will be .
, % of the Moon is Illuminated

Today's Extremes

State Highs State Lows

Community

WunderPhotos

Upload Photos

1,962,540 photos uploaded!

WunderBlog® & News

Nearby

Air Quality

  Air Quality AQ Index Pollutant
Not available.

Snow Depth

Station Depth Elevation

Earthquake Activity

City Distance Mag. Time & Date
Minimum magnitude displayed is 2.5.

Coastal Water Temperatures

Place Temperature

Stations

Nearby Weather Stations

Station Location Temp. Windchill Dew Point Humidity Wind Precip. Elev Updated Type
                   

Watches & Warnings

Winter Weather Advisory
Issued: 2:41 AM MST Jan. 21, 2017 – National Weather Service

... Winter Weather Advisory remains in effect until noon MST
today...

* affected area... the western Uinta Basin... Castle country... the
San Rafael Swell and the south central valleys.

* Snow accumulations... an additional 1-3 inches of snow.

* Timing... snow will continue heavy at times through this
morning... gradually tapering off this afternoon.

* Impacts... significant travel impacts are anticipated for through
this morning. Accumulating Road snow will create hazardous
travel conditions throughout the advisory area.

Precautionary/preparedness actions...

A Winter Weather Advisory for snow means that snow accumulations
will cause primarily travel difficulties. Be prepared for snow
covered roads. Use caution while driving.

For winter Road conditions from the Utah Department of
Transportation... visit
http://www.Udottraffic.Utah.Gov/roadweatherforecast.Aspx or dial
511.